WETTERDATEN

GESTERN
Time Temp. Taup. r.Fe. Windrich Windstärke Windböe Druck 1h Prec. 24h Prec.
00:02 13.2 8.5 73 318 0.3 1.1 1010.3 0.0000 0.0000
00:13 13.1 8.4 73 318 0.3 1.1 1010.7 0.0000 0.0000
00:33 13.2 8.7 74 310 0.3 1.1 1011.1 0.0000 0.0000
00:43 13.3 8.8 74 322 0.3 1.1 1011.1 0.0000 0.0000
00:53 13.4 9.1 75 322 0.3 1.1 1011 0.0000 0.0000
01:03 13.4 9.1 75 307 0.3 1.4 1011.1 0.0000 0.0000
01:13 13.4 9.1 75 286 0.8 1.4 1011.1 0.0000 0.0000
01:24 13.5 9.4 76 315 0.8 1.1 1011.1 0.0000 0.0000
01:34 13.5 9.4 76 284 0.8 1.4 1011.3 0.0000 0.0000
01:43 13.5 9.4 76 319 0.3 1.1 1011.3 0.0000 0.0000
01:53 13.5 9.4 76 270 0.3 1.4 1011.4 0.0000 0.0000
02:04 13.6 9.6 77 270 0.3 1.4 1011.4 0.0000 0.0000
02:14 13.7 9.7 77 302 0.3 1.1 1011.4 0.0000 0.0000
02:23 13.8 9.8 77 306 0.3 1.4 1011.6 0.0000 0.0000
02:34 13.8 9.8 77 270 0.3 1.4 1011.6 0.0000 0.0000
02:44 13.9 9.9 77 305 0.3 1.1 1011.6 0.0000 0.0000
02:54 14 10.2 78 270 0.3 2.2 1011.6 0.0000 0.0000
03:04 14.1 10.3 78 281 0.8 3.6 1011.7 0.0000 0.0000
03:14 14.1 10.3 78 270 0.3 1.4 1011.7 0.0000 0.0000
03:24 14.2 10.4 78 270 0.3 1.1 1011.7 0.0000 0.0000
03:34 14.2 10.4 78 270 0.3 1.4 1011.7 0.0000 0.0000
03:45 14.3 10.5 78 270 0.8 2.5 1011.7 0.0000 0.0000
03:55 14.3 10.5 78 288 0.8 1.9 1011.7 0.0000 0.0000
04:04 14.3 10.5 78 270 0.8 3.1 1011.8 0.0000 0.0000
04:14 14.3 10.5 78 282 0.8 2.5 1011.6 0.0000 0.0000
04:25 14.3 10.5 78 270 0.8 1.4 1011.6 0.0000 0.0000
04:35 14.4 10.6 78 270 0.3 1.4 1011.6 0.0000 0.0000
04:45 14.4 10.6 78 270 0.3 1.1 1011.9 0.0000 0.0000
04:55 14.4 10.6 78 290 0.8 1.4 1011.8 0.0000 0.0000
05:05 14.4 10.8 79 257 0.8 1.9 1011.8 0.0000 0.0000
05:16 14.5 10.9 79 288 0.8 1.4 1011.8 0.3000 0.3000
05:25 14.4 10.8 79 292 0.8 1.9 1011.9 1.4030 1.4000
05:36 14.4 10.8 79 307 0.3 1.1 1011.8 1.4030 1.4000
05:46 14.4 10.8 79 270 0.3 1.1 1011.7 1.5030 1.5000
05:56 14.4 10.8 79 270 0.3 1.4 1011.7 1.5030 1.5000
06:06 14.4 10.8 79 311 0.3 1.1 1011.6 1.4030 1.5000
06:16 14.4 10.8 79 307 0.8 1.4 1011.9 0.1000 1.5000
06:26 14.4 10.8 79 290 0.8 1.4 1011.8 0.1000 1.5000
06:36 14.3 10.9 80 270 0.3 1.4 1011.9 0.1000 1.5000
06:47 14.3 10.9 80 307 0.3 1.1 1012 0.0000 1.5000
06:56 14.3 10.9 80 270 0.8 1.9 1012 0.0000 1.5000
07:06 14.3 10.9 80 270 0.3 1.1 1011.9 0.0000 1.5000
07:16 14.3 10.9 80 270 0.3 1.1 1012 0.0000 1.5000
07:27 14.3 10.9 80 306 0.3 1.1 1012 0.0000 1.5000
07:37 14.3 10.9 80 270 0.8 1.9 1012.2 0.0000 1.5000
07:46 14.3 10.9 80 296 0.8 1.9 1012.1 0.0000 1.5000
07:57 14.3 10.9 80 305 0.8 1.4 1012.3 0.0000 1.5000
08:07 14.4 11 80 297 0.8 1.4 1012.5 0.0000 1.5000
08:17 14.5 11.1 80 296 0.8 1.4 1012.7 0.0000 1.5000
08:27 14.6 11.2 80 299 0.8 1.4 1012.6 0.0000 1.5000
08:37 14.6 11.2 80 270 0.3 1.4 1012.7 0.0000 1.5000
08:47 14.7 11.3 80 270 0.8 1.4 1012.8 0.0000 1.5000
08:57 14.7 11.3 80 280 0.8 1.4 1012.9 0.0000 1.5000
09:07 14.8 11.4 80 284 0.8 2.2 1012.9 0.0000 1.5000
09:18 14.9 11.3 79 286 0.8 1.9 1012.8 0.0000 1.5000
09:27 14.9 11.3 79 291 0.8 1.4 1013.1 0.0000 1.5000
09:37 15 11.4 79 285 0.8 2.2 1013.2 0.0000 1.5000
09:48 15 11.4 79 291 0.8 2.2 1013.4 0.0000 1.5000
09:58 15 11.4 79 292 0.8 1.4 1013.4 0.0000 1.5000
10:08 15 11.4 79 294 0.8 2.2 1013.4 0.0000 1.5000
10:18 15.1 11.5 79 304 0.8 2.2 1013.6 0.0000 1.5000
10:28 15.1 11.5 79 302 0.8 1.1 1013.7 0.0000 1.5000
10:38 15.2 11.6 79 301 0.8 1.1 1013.8 0.0000 1.5000
10:48 15.2 11.6 79 305 0.8 1.9 1013.8 0.0000 1.5000
10:59 15.2 11.4 78 291 0.8 1.4 1014 0.0000 1.5000
11:08 15.2 11.4 78 305 0.8 1.9 1014 0.0000 1.5000
11:18 15.2 11.4 78 286 0.8 1.4 1014 0.1000 1.6000
11:28 15.2 11.4 78 311 0.3 1.4 1014.1 0.1000 1.6000
11:39 15.2 11.6 79 270 0.8 1.9 1014 0.1000 1.6000
11:48 15.3 11.7 79 301 0.8 1.1 1014.1 0.1000 1.6000
11:58 15.4 11.8 79 304 0.8 1.9 1014.2 0.1000 1.6000
12:09 15.5 11.9 79 298 0.8 1.9 1014.3 0.1000 1.6000
12:19 15.5 11.7 78 295 0.8 1.9 1014.4 0.0000 1.6000
12:29 15.6 11.8 78 285 0.8 2.2 1014.4 0.0000 1.6000
12:39 15.7 11.9 78 282 0.8 1.9 1014.5 0.0000 1.6000
12:49 15.9 12.1 78 288 0.8 1.9 1014.6 0.0000 1.6000
12:59 16 12 77 289 0.8 1.4 1014.8 0.0000 1.6000
13:09 16.1 12.1 77 304 0.8 1.4 1014.7 0.0000 1.6000
13:20 16.1 11.9 76 285 0.8 2.2 1014.8 0.0000 1.6000
13:29 16.2 12 76 281 0.8 2.2 1014.8 0.0000 1.6000
13:39 16.3 11.9 75 284 0.8 1.4 1014.8 0.0000 1.6000
13:49 16.3 11.7 74 289 0.8 1.1 1014.8 0.0000 1.6000
14:00 16.3 11.7 74 282 0.8 1.9 1015 0.0000 1.6000
14:10 16.3 11.7 74 280 0.8 1.4 1015 0.0000 1.6000
14:19 16.4 11.8 74 270 0.8 1.4 1014.9 0.0000 1.6000
14:30 16.6 12 74 270 0.8 1.4 1014.9 0.0000 1.6000
14:40 16.8 11.7 72 284 0.8 2.2 1014.8 0.0000 1.6000
14:50 17.1 11.8 71 282 0.8 1.9 1014.8 0.0000 1.6000
15:00 17.3 11.6 69 270 0.8 2.5 1014.9 0.0000 1.6000
15:10 17.4 11.7 69 260 0.8 1.9 1014.9 0.0000 1.6000
15:20 17.4 11.2 67 270 0.8 2.5 1014.8 0.0000 1.6000
15:30 17.4 11.2 67 245 0.8 1.4 1014.9 0.0000 1.6000
15:41 17.5 11.3 67 259 0.8 2.2 1015 0.0000 1.6000
15:50 17.5 11.3 67 270 0.8 2.2 1015.1 0.0000 1.6000
16:00 17.5 11.1 66 285 0.8 2.2 1015.2 0.0000 1.6000
16:10 17.4 11 66 270 0.8 1.9 1015.2 0.0000 1.6000
16:21 17.3 11.1 67 285 0.8 1.4 1015.3 0.0000 1.6000
16:31 17.2 11 67 270 0.8 1.4 1015.5 0.0000 1.6000
16:40 17.1 10.9 67 270 0.8 1.4 1015.4 0.0000 1.6000
16:51 17 11.1 68 270 0.3 1.4 1015.4 0.0000 1.6000
17:01 17 11.1 68 270 0.8 1.9 1015.5 0.0000 1.6000
17:11 17.1 11.4 69 270 0.8 1.9 1015.5 0.0000 1.6000
17:20 17.1 11.4 69 270 0.8 1.4 1015.5 0.0000 1.6000
17:31 17.2 11.2 68 270 0.8 2.2 1015.7 0.0000 1.6000
17:41 17.1 11.2 68 270 0.8 2.2 1015.7 0.0000 1.6000
17:51 17.1 11.2 68 259 0.8 1.9 1015.7 0.0000 1.6000
18:01 17 11.1 68 270 0.8 1.4 1015.9 0.0000 1.6000
18:11 16.9 11 68 285 0.8 1.4 1015.9 0.0000 1.6000
18:21 16.9 11 68 286 0.8 1.4 1016 0.0000 1.6000
18:31 16.9 11 68 270 0.3 1.1 1016.3 0.0000 1.6000
18:42 16.8 10.9 68 270 0.8 1.4 1016.3 0.0000 1.6000
18:52 16.7 10.8 68 270 0.8 1.9 1016.7 0.0000 1.6000
19:01 16.6 10.7 68 270 0.3 1.4 1016.7 0.0000 1.6000
19:12 16.4 10.7 69 270 0.8 1.4 1017 0.0000 1.6000
19:22 16.3 10.6 69 270 0.3 1.1 1017.2 0.0000 1.6000
19:32 16.1 10.4 69 270 0.3 1.4 1017.4 0.0000 1.6000
19:42 16 10.3 69 270 0.8 1.9 1017.7 0.0000 1.6000
19:52 15.9 10.2 69 270 0.3 1.1 1017.9 0.0000 1.6000
20:02 15.7 10.3 70 270 0.3 1.1 1018.1 0.0000 1.6000
20:12 15.6 10.2 70 270 0.3 1.1 1018 0.0000 1.6000
20:22 15.5 10.1 70 270 0.3 1.1 1018.2 0.0000 1.6000
20:32 15.4 10 70 270 0.3 1.1 1018.6 0.0000 1.6000
20:42 15.3 9.9 70 270 0.3 1.1 1018.6 0.0000 1.6000
20:52 15.1 9.7 70 270 0.3 1.1 1018.9 0.0000 1.6000
21:03 15 9.6 70 270 0.3 1.1 1018.9 0.0000 1.6000
21:22 14.7 9.3 70 270 0.3 0.8 1019.1 0.0000 1.6000
21:32 14.6 9.2 70 270 0.3 0.8 1019.3 0.0000 1.6000
21:43 14.5 9.3 71 270 0.3 0.8 1019.3 0.0000 1.6000
21:53 14.4 9.2 71 270 0.3 0.8 1019.5 0.0000 1.6000
22:02 14.3 9.1 71 270 0.3 0.8 1019.6 0.0000 1.6000
22:13 14.2 9 71 270 0.3 0.8 1019.8 0.0000 1.6000
22:23 14.1 8.9 71 270 0.3 0.8 1019.9 0.0000 1.6000
22:33 14 9 72 270 0.3 0.8 1020 0.0000 1.6000
22:43 13.9 8.9 72 270 0.3 0.8 1020.2 0.0000 1.6000
22:53 13.8 8.8 72 270 0.3 0.8 1020.4 0.0000 1.6000
23:03 13.7 8.7 72 270 0.3 0.8 1020.6 0.0000 1.6000
23:13 13.6 8.7 72 270 0.3 0.8 1020.6 0.0000 1.6000
23:24 13.4 8.5 72 270 0.3 0.8 1020.7 0.0000 1.6000
23:33 13.2 8.3 72 270 0.3 0.8 1020.8 0.0000 1.6000
23:43 13.1 8.2 72 270 0.3 0.8 1020.9 0.0000 1.6000
23:53 13 8.3 73 270 0.3 0.8 1021.1 0.0000

TAGESSTATISTIK

2022-10-02
TEMPERATUR
MITTEL
15.1
MAXIMUM
17.5
15:41
MINIMUM
13.0
23:53
LUFTDRUCK
MITTEL
1014.5
MAXIMUM
1021.1
23:53
MINIMUM
1010.3
00:02
TAUPUNKT
MITTEL
10.6
MAXIMUM
12.1
12:49
MINIMUM
8.2
23:43
FEUCHTIGKEIT
MITTEL
75
MAXIMUM
80
06:36
MINIMUM
66
16:00
WINDSTÄRKE
MITTEL
0.6
MAXIMUM
0.8
01:13
WINDBÖE
MITTEL
1.5
MAXIMUM
3.6
03:04
WINDRICHTUNG
VORHERRSCHENDE
W
75.9%
N
0.0
NO
0.0
O
0.0
SO
0.0
S
0.0
SW
0.7
W
75.9
NW
23.4
NIEDERSCHLAG
REGEN STUNDE
1.5
REGEN TAG
1.6
TEMPERATUR (°C)
MINIMUM
13.0
MAXIMUM
17.5
MITTEL
15.1
LUFTDRUCK (hpa)
MINIMUM
1010.3
MAXIMUM
1021.1
MITTEL
1014.5
MESSGERÄT